sensor_id;sensor_type;location;lat;lon;timestamp;pressure;altitude;pressure_sealevel;temperature;humidity
10658;BME280;5377;43.276;26.930;2023-03-03T00:00:28;99439.16;;;5.40;100.00
10658;BME280;5377;43.276;26.930;2023-03-03T00:02:56;99446.84;;;5.67;100.00
10658;BME280;5377;43.276;26.930;2023-03-03T00:05:24;99443.53;;;5.57;100.00
10658;BME280;5377;43.276;26.930;2023-03-03T00:07:51;99438.38;;;5.55;100.00
10658;BME280;5377;43.276;26.930;2023-03-03T00:10:18;99443.53;;;5.73;100.00
10658;BME280;5377;43.276;26.930;2023-03-03T00:12:46;99435.06;;;5.70;100.00
10658;BME280;5377;43.276;26.930;2023-03-03T00:15:16;99436.22;;;5.75;100.00
10658;BME280;5377;43.276;26.930;2023-03-03T00:17:43;99438.22;;;5.65;100.00
10658;BME280;5377;43.276;26.930;2023-03-03T00:20:30;99429.09;;;5.76;100.00
10658;BME280;5377;43.276;26.930;2023-03-03T00:23:08;99426.44;;;5.68;100.00
10658;BME280;5377;43.276;26.930;2023-03-03T00:25:42;99425.09;;;5.80;100.00
10658;BME280;5377;43.276;26.930;2023-03-03T00:28:19;99420.28;;;5.83;100.00
10658;BME280;5377;43.276;26.930;2023-03-03T00:30:49;99415.31;;;5.88;100.00
10658;BME280;5377;43.276;26.930;2023-03-03T00:33:24;99405.22;;;5.92;100.00
10658;BME280;5377;43.276;26.930;2023-03-03T00:35:54;99403.69;;;5.89;100.00
10658;BME280;5377;43.276;26.930;2023-03-03T00:38:20;99408.56;;;5.94;100.00
10658;BME280;5377;43.276;26.930;2023-03-03T00:40:48;99405.16;;;5.84;100.00
10658;BME280;5377;43.276;26.930;2023-03-03T00:43:18;99401.50;;;5.85;100.00
10658;BME280;5377;43.276;26.930;2023-03-03T00:45:48;99403.00;;;5.87;100.00
10658;BME280;5377;43.276;26.930;2023-03-03T00:48:24;99401.34;;;5.86;100.00
10658;BME280;5377;43.276;26.930;2023-03-03T00:50:52;99392.72;;;5.76;100.00
10658;BME280;5377;43.276;26.930;2023-03-03T00:53:20;99399.25;;;5.90;100.00
10658;BME280;5377;43.276;26.930;2023-03-03T00:55:51;99393.44;;;5.94;100.00
10658;BME280;5377;43.276;26.930;2023-03-03T00:58:19;99389.88;;;5.61;100.00
10658;BME280;5377;43.276;26.930;2023-03-03T01:00:47;99394.19;;;5.54;100.00
10658;BME280;5377;43.276;26.930;2023-03-03T01:03:18;99386.38;;;5.53;100.00
10658;BME280;5377;43.276;26.930;2023-03-03T01:05:46;99381.88;;;5.53;100.00
10658;BME280;5377;43.276;26.930;2023-03-03T01:08:13;99380.22;;;5.52;100.00
10658;BME280;5377;43.276;26.930;2023-03-03T01:10:43;99377.88;;;5.33;100.00
10658;BME280;5377;43.276;26.930;2023-03-03T01:13:12;99371.44;;;5.44;100.00
10658;BME280;5377;43.276;26.930;2023-03-03T01:15:39;99372.25;;;5.52;100.00
10658;BME280;5377;43.276;26.930;2023-03-03T01:18:06;99371.91;;;5.47;100.00
10658;BME280;5377;43.276;26.930;2023-03-03T01:20:34;99371.44;;;5.52;100.00
10658;BME280;5377;43.276;26.930;2023-03-03T01:23:01;99375.91;;;5.51;100.00
10658;BME280;5377;43.276;26.930;2023-03-03T01:25:28;99380.56;;;5.49;100.00
10658;BME280;5377;43.276;26.930;2023-03-03T01:27:55;99366.59;;;5.47;100.00
10658;BME280;5377;43.276;26.930;2023-03-03T01:30:22;99369.97;;;5.57;100.00
10658;BME280;5377;43.276;26.930;2023-03-03T01:32:49;99361.31;;;5.63;100.00
10658;BME280;5377;43.276;26.930;2023-03-03T01:35:16;99381.09;;;5.69;100.00
10658;BME280;5377;43.276;26.930;2023-03-03T01:37:44;99354.69;;;5.68;100.00
10658;BME280;5377;43.276;26.930;2023-03-03T01:40:15;99350.03;;;5.70;100.00
10658;BME280;5377;43.276;26.930;2023-03-03T01:42:42;99348.72;;;5.66;100.00
10658;BME280;5377;43.276;26.930;2023-03-03T01:45:13;99343.22;;;5.59;100.00
10658;BME280;5377;43.276;26.930;2023-03-03T01:47:45;99347.72;;;5.67;100.00
10658;BME280;5377;43.276;26.930;2023-03-03T01:50:14;99347.03;;;5.48;100.00
10658;BME280;5377;43.276;26.930;2023-03-03T01:52:45;99333.41;;;5.43;100.00
10658;BME280;5377;43.276;26.930;2023-03-03T01:55:16;99335.72;;;5.46;100.00
10658;BME280;5377;43.276;26.930;2023-03-03T01:57:47;99346.06;;;5.57;100.00
10658;BME280;5377;43.276;26.930;2023-03-03T02:00:17;99336.41;;;5.48;100.00
10658;BME280;5377;43.276;26.930;2023-03-03T02:02:44;99342.53;;;5.49;100.00
10658;BME280;5377;43.276;26.930;2023-03-03T02:05:12;99327.09;;;5.52;100.00
10658;BME280;5377;43.276;26.930;2023-03-03T02:07:40;99336.88;;;5.52;100.00
10658;BME280;5377;43.276;26.930;2023-03-03T02:10:11;99340.38;;;5.44;100.00
10658;BME280;5377;43.276;26.930;2023-03-03T02:12:42;99333.25;;;5.53;100.00
10658;BME280;5377;43.276;26.930;2023-03-03T02:15:17;99325.75;;;5.48;100.00
10658;BME280;5377;43.276;26.930;2023-03-03T02:17:44;99329.75;;;5.52;100.00
10658;BME280;5377;43.276;26.930;2023-03-03T02:20:15;99333.91;;;5.47;100.00
10658;BME280;5377;43.276;26.930;2023-03-03T02:22:50;99331.41;;;5.45;100.00
10658;BME280;5377;43.276;26.930;2023-03-03T02:25:26;99324.44;;;5.36;100.00
10658;BME280;5377;43.276;26.930;2023-03-03T02:27:57;99328.75;;;5.53;100.00
10658;BME280;5377;43.276;26.930;2023-03-03T02:30:25;99314.31;;;5.31;100.00
10658;BME280;5377;43.276;26.930;2023-03-03T02:32:52;99323.94;;;5.49;100.00
10658;BME280;5377;43.276;26.930;2023-03-03T02:35:28;99334.91;;;5.54;100.00
10658;BME280;5377;43.276;26.930;2023-03-03T02:37:59;99324.81;;;5.57;100.00
10658;BME280;5377;43.276;26.930;2023-03-03T02:40:31;99326.97;;;5.62;100.00
10658;BME280;5377;43.276;26.930;2023-03-03T02:43:02;99321.78;;;5.52;100.00
10658;BME280;5377;43.276;26.930;2023-03-03T02:45:29;99323.31;;;5.63;100.00
10658;BME280;5377;43.276;26.930;2023-03-03T02:47:56;99319.63;;;5.72;100.00
10658;BME280;5377;43.276;26.930;2023-03-03T02:50:23;99319.81;;;5.71;100.00
10658;BME280;5377;43.276;26.930;2023-03-03T02:52:50;99319.47;;;5.66;100.00
10658;BME280;5377;43.276;26.930;2023-03-03T02:55:16;99326.28;;;5.60;100.00
10658;BME280;5377;43.276;26.930;2023-03-03T02:57:43;99332.75;;;5.66;100.00
10658;BME280;5377;43.276;26.930;2023-03-03T03:00:12;99334.44;;;5.58;100.00
10658;BME280;5377;43.276;26.930;2023-03-03T03:02:39;99338.06;;;5.49;100.00
10658;BME280;5377;43.276;26.930;2023-03-03T03:05:06;99335.72;;;5.54;100.00
10658;BME280;5377;43.276;26.930;2023-03-03T03:07:34;99338.88;;;5.50;100.00
10658;BME280;5377;43.276;26.930;2023-03-03T03:10:01;99341.38;;;5.35;100.00
10658;BME280;5377;43.276;26.930;2023-03-03T03:12:27;99335.56;;;5.48;100.00
10658;BME280;5377;43.276;26.930;2023-03-03T03:14:54;99339.22;;;5.47;100.00
10658;BME280;5377;43.276;26.930;2023-03-03T03:17:22;99329.41;;;5.39;100.00
10658;BME280;5377;43.276;26.930;2023-03-03T03:19:49;99330.25;;;5.40;100.00
10658;BME280;5377;43.276;26.930;2023-03-03T03:22:16;99329.41;;;5.31;100.00
10658;BME280;5377;43.276;26.930;2023-03-03T03:24:43;99321.94;;;5.43;100.00
10658;BME280;5377;43.276;26.930;2023-03-03T03:27:10;99311.50;;;5.41;100.00
10658;BME280;5377;43.276;26.930;2023-03-03T03:29:37;99305.69;;;5.21;100.00
10658;BME280;5377;43.276;26.930;2023-03-03T03:32:04;99315.81;;;5.34;100.00
10658;BME280;5377;43.276;26.930;2023-03-03T03:34:32;99312.78;;;5.13;100.00
10658;BME280;5377;43.276;26.930;2023-03-03T03:36:59;99313.94;;;5.10;100.00
10658;BME280;5377;43.276;26.930;2023-03-03T03:39:26;99323.41;;;5.13;100.00
10658;BME280;5377;43.276;26.930;2023-03-03T03:41:53;99312.78;;;5.13;100.00
10658;BME280;5377;43.276;26.930;2023-03-03T03:44:20;99312.44;;;5.08;100.00
10658;BME280;5377;43.276;26.930;2023-03-03T03:46:48;99302.53;;;5.26;100.00
10658;BME280;5377;43.276;26.930;2023-03-03T03:49:15;99312.31;;;5.33;100.00
10658;BME280;5377;43.276;26.930;2023-03-03T03:51:43;99312.66;;;5.47;100.00
10658;BME280;5377;43.276;26.930;2023-03-03T03:54:09;99294.72;;;5.49;100.00
10658;BME280;5377;43.276;26.930;2023-03-03T03:56:36;99293.88;;;5.48;100.00
10658;BME280;5377;43.276;26.930;2023-03-03T03:59:04;99276.31;;;5.39;100.00
10658;BME280;5377;43.276;26.930;2023-03-03T04:01:32;99287.25;;;5.44;100.00
10658;BME280;5377;43.276;26.930;2023-03-03T04:03:58;99288.59;;;5.40;100.00
10658;BME280;5377;43.276;26.930;2023-03-03T04:06:25;99280.13;;;5.45;100.00
10658;BME280;5377;43.276;26.930;2023-03-03T04:08:53;99276.78;;;5.43;100.00
10658;BME280;5377;43.276;26.930;2023-03-03T04:11:20;99278.63;;;5.34;100.00
10658;BME280;5377;43.276;26.930;2023-03-03T04:13:47;99284.94;;;5.41;100.00
10658;BME280;5377;43.276;26.930;2023-03-03T04:16:14;99276.97;;;5.41;100.00
10658;BME280;5377;43.276;26.930;2023-03-03T04:18:40;99254.53;;;5.11;100.00
10658;BME280;5377;43.276;26.930;2023-03-03T04:21:10;99284.06;;;5.08;100.00
10658;BME280;5377;43.276;26.930;2023-03-03T04:23:37;99268.31;;;5.15;100.00
10658;BME280;5377;43.276;26.930;2023-03-03T04:26:05;99272.63;;;5.16;100.00
10658;BME280;5377;43.276;26.930;2023-03-03T04:28:32;99264.66;;;5.08;100.00
10658;BME280;5377;43.276;26.930;2023-03-03T04:30:59;99283.91;;;5.10;100.00
10658;BME280;5377;43.276;26.930;2023-03-03T04:33:26;99276.78;;;5.18;100.00
10658;BME280;5377;43.276;26.930;2023-03-03T04:35:53;99272.47;;;5.17;100.00
10658;BME280;5377;43.276;26.930;2023-03-03T04:38:19;99277.97;;;5.24;100.00
10658;BME280;5377;43.276;26.930;2023-03-03T04:40:46;99259.03;;;5.11;100.00
10658;BME280;5377;43.276;26.930;2023-03-03T04:43:14;99272.50;;;5.25;100.00
10658;BME280;5377;43.276;26.930;2023-03-03T04:45:41;99272.00;;;5.22;100.00
10658;BME280;5377;43.276;26.930;2023-03-03T04:48:08;99273.81;;;5.38;100.00
10658;BME280;5377;43.276;26.930;2023-03-03T04:50:35;99269.84;;;5.33;100.00
10658;BME280;5377;43.276;26.930;2023-03-03T04:53:02;99272.81;;;5.39;100.00
10658;BME280;5377;43.276;26.930;2023-03-03T04:55:29;99265.34;;;5.34;100.00
10658;BME280;5377;43.276;26.930;2023-03-03T04:57:56;99265.00;;;5.37;100.00
10658;BME280;5377;43.276;26.930;2023-03-03T05:00:24;99263.34;;;5.44;100.00
10658;BME280;5377;43.276;26.930;2023-03-03T05:02:50;99263.03;;;5.31;100.00
10658;BME280;5377;43.276;26.930;2023-03-03T05:05:17;99274.66;;;5.22;100.00
10658;BME280;5377;43.276;26.930;2023-03-03T05:07:44;99281.75;;;5.13;100.00
10658;BME280;5377;43.276;26.930;2023-03-03T05:10:11;99282.75;;;5.12;100.00
10658;BME280;5377;43.276;26.930;2023-03-03T05:12:38;99295.03;;;5.13;100.00
10658;BME280;5377;43.276;26.930;2023-03-03T05:15:06;99299.19;;;5.16;100.00
10658;BME280;5377;43.276;26.930;2023-03-03T05:17:34;99301.00;;;5.15;100.00
10658;BME280;5377;43.276;26.930;2023-03-03T05:20:01;99304.81;;;5.13;100.00
10658;BME280;5377;43.276;26.930;2023-03-03T05:22:30;99299.50;;;5.13;100.00
10658;BME280;5377;43.276;26.930;2023-03-03T05:24:56;99288.44;;;5.25;100.00
10658;BME280;5377;43.276;26.930;2023-03-03T05:27:23;99249.88;;;4.97;100.00
10658;BME280;5377;43.276;26.930;2023-03-03T05:29:50;99311.16;;;5.36;100.00
10658;BME280;5377;43.276;26.930;2023-03-03T05:32:17;99311.31;;;5.35;100.00
10658;BME280;5377;43.276;26.930;2023-03-03T05:34:45;99302.88;;;5.31;100.00
10658;BME280;5377;43.276;26.930;2023-03-03T05:37:12;99296.72;;;5.22;100.00
10658;BME280;5377;43.276;26.930;2023-03-03T05:39:40;99304.84;;;5.37;100.00
10658;BME280;5377;43.276;26.930;2023-03-03T05:42:10;99300.53;;;5.36;100.00
10658;BME280;5377;43.276;26.930;2023-03-03T05:44:38;99312.81;;;5.37;100.00
10658;BME280;5377;43.276;26.930;2023-03-03T05:47:04;99308.00;;;5.32;100.00
10658;BME280;5377;43.276;26.930;2023-03-03T05:49:31;99304.53;;;5.32;100.00
10658;BME280;5377;43.276;26.930;2023-03-03T05:51:59;99309.16;;;5.30;100.00
10658;BME280;5377;43.276;26.930;2023-03-03T05:54:26;99313.16;;;5.34;100.00
10658;BME280;5377;43.276;26.930;2023-03-03T05:56:53;99317.47;;;5.35;100.00
10658;BME280;5377;43.276;26.930;2023-03-03T05:59:21;99307.19;;;5.40;100.00
10658;BME280;5377;43.276;26.930;2023-03-03T06:01:48;99300.19;;;5.47;100.00
10658;BME280;5377;43.276;26.930;2023-03-03T06:04:15;99311.50;;;5.49;100.00
10658;BME280;5377;43.276;26.930;2023-03-03T06:06:42;99305.84;;;5.36;100.00
10658;BME280;5377;43.276;26.930;2023-03-03T06:09:10;99292.91;;;5.41;100.00
10658;BME280;5377;43.276;26.930;2023-03-03T06:11:37;99298.22;;;5.49;100.00
10658;BME280;5377;43.276;26.930;2023-03-03T06:14:04;99283.94;;;5.58;100.00
10658;BME280;5377;43.276;26.930;2023-03-03T06:16:30;99289.59;;;5.39;100.00
10658;BME280;5377;43.276;26.930;2023-03-03T06:18:57;99289.25;;;5.58;100.00
10658;BME280;5377;43.276;26.930;2023-03-03T06:21:24;99295.22;;;5.44;100.00
10658;BME280;5377;43.276;26.930;2023-03-03T06:23:51;99292.22;;;5.47;100.00
10658;BME280;5377;43.276;26.930;2023-03-03T06:26:19;99296.22;;;5.35;100.00
10658;BME280;5377;43.276;26.930;2023-03-03T06:28:46;99299.69;;;5.52;100.00
10658;BME280;5377;43.276;26.930;2023-03-03T06:31:14;99302.22;;;5.61;100.00
10658;BME280;5377;43.276;26.930;2023-03-03T06:33:41;99301.56;;;5.59;100.00
10658;BME280;5377;43.276;26.930;2023-03-03T06:36:08;99298.72;;;5.69;100.00
10658;BME280;5377;43.276;26.930;2023-03-03T06:38:35;99301.53;;;5.76;100.00
10658;BME280;5377;43.276;26.930;2023-03-03T06:41:02;99298.03;;;5.83;100.00
10658;BME280;5377;43.276;26.930;2023-03-03T06:43:33;99300.69;;;6.00;100.00
10658;BME280;5377;43.276;26.930;2023-03-03T06:45:59;99298.81;;;6.16;100.00
10658;BME280;5377;43.276;26.930;2023-03-03T06:48:27;99295.81;;;6.28;100.00
10658;BME280;5377;43.276;26.930;2023-03-03T06:50:53;99296.03;;;6.10;100.00
10658;BME280;5377;43.276;26.930;2023-03-03T06:53:20;99293.84;;;6.13;100.00
10658;BME280;5377;43.276;26.930;2023-03-03T06:55:47;99293.84;;;6.13;100.00
10658;BME280;5377;43.276;26.930;2023-03-03T06:58:15;99292.44;;;6.42;100.00
10658;BME280;5377;43.276;26.930;2023-03-03T07:00:45;99286.53;;;6.15;100.00
10658;BME280;5377;43.276;26.930;2023-03-03T07:03:17;99282.53;;;6.28;100.00
10658;BME280;5377;43.276;26.930;2023-03-03T07:05:44;99283.34;;;6.28;100.00
10658;BME280;5377;43.276;26.930;2023-03-03T07:08:13;99286.31;;;6.33;100.00
10658;BME280;5377;43.276;26.930;2023-03-03T07:10:42;99279.75;;;6.52;100.00
10658;BME280;5377;43.276;26.930;2023-03-03T07:13:27;99276.84;;;6.70;100.00
10658;BME280;5377;43.276;26.930;2023-03-03T07:15:58;99274.25;;;6.84;100.00
10658;BME280;5377;43.276;26.930;2023-03-03T07:18:34;99277.41;;;6.88;100.00
10658;BME280;5377;43.276;26.930;2023-03-03T07:21:12;99261.34;;;7.04;100.00
10658;BME280;5377;43.276;26.930;2023-03-03T07:23:41;99269.50;;;7.03;100.00
10658;BME280;5377;43.276;26.930;2023-03-03T07:26:10;99269.50;;;7.03;100.00
10658;BME280;5377;43.276;26.930;2023-03-03T07:28:40;99257.84;;;7.27;100.00
10658;BME280;5377;43.276;26.930;2023-03-03T07:31:25;99260.63;;;7.33;100.00
10658;BME280;5377;43.276;26.930;2023-03-03T07:33:53;99254.88;;;7.22;100.00
10658;BME280;5377;43.276;26.930;2023-03-03T07:36:25;99254.13;;;7.36;100.00
10658;BME280;5377;43.276;26.930;2023-03-03T07:38:54;99236.00;;;7.08;100.00
10658;BME280;5377;43.276;26.930;2023-03-03T07:41:22;99263.84;;;7.06;100.00
10658;BME280;5377;43.276;26.930;2023-03-03T07:43:50;99256.09;;;6.88;100.00
10658;BME280;5377;43.276;26.930;2023-03-03T07:46:25;99248.09;;;6.96;100.00
10658;BME280;5377;43.276;26.930;2023-03-03T07:48:57;99254.53;;;7.02;100.00
10658;BME280;5377;43.276;26.930;2023-03-03T07:51:26;99260.56;;;7.18;100.00
10658;BME280;5377;43.276;26.930;2023-03-03T07:53:55;99257.72;;;6.97;100.00
10658;BME280;5377;43.276;26.930;2023-03-03T07:56:29;99252.19;;;6.76;100.00
10658;BME280;5377;43.276;26.930;2023-03-03T07:58:57;99253.50;;;6.80;100.00
10658;BME280;5377;43.276;26.930;2023-03-03T08:01:39;99244.91;;;7.01;100.00
10658;BME280;5377;43.276;26.930;2023-03-03T08:04:16;99196.34;;;6.91;100.00
10658;BME280;5377;43.276;26.930;2023-03-03T08:06:50;99237.66;;;7.32;100.00
10658;BME280;5377;43.276;26.930;2023-03-03T08:09:38;99222.56;;;7.25;100.00
10658;BME280;5377;43.276;26.930;2023-03-03T08:12:38;99242.28;;;7.15;100.00
10658;BME280;5377;43.276;26.930;2023-03-03T08:15:22;99243.69;;;7.26;100.00
10658;BME280;5377;43.276;26.930;2023-03-03T08:17:51;99252.09;;;6.92;100.00
10658;BME280;5377;43.276;26.930;2023-03-03T08:20:52;99242.88;;;7.03;100.00
10658;BME280;5377;43.276;26.930;2023-03-03T08:23:20;99247.84;;;7.06;100.00
10658;BME280;5377;43.276;26.930;2023-03-03T08:25:49;99253.50;;;7.26;100.00
10658;BME280;5377;43.276;26.930;2023-03-03T08:28:17;99247.69;;;7.30;100.00
10658;BME280;5377;43.276;26.930;2023-03-03T08:30:44;99233.34;;;7.31;100.00
10658;BME280;5377;43.276;26.930;2023-03-03T08:33:13;99244.88;;;7.46;100.00
10658;BME280;5377;43.276;26.930;2023-03-03T08:35:41;99240.38;;;7.62;100.00
10658;BME280;5377;43.276;26.930;2023-03-03T08:38:08;99252.59;;;7.56;100.00
10658;BME280;5377;43.276;26.930;2023-03-03T08:40:35;99240.75;;;7.59;100.00
10658;BME280;5377;43.276;26.930;2023-03-03T08:43:02;99232.19;;;7.48;100.00
10658;BME280;5377;43.276;26.930;2023-03-03T08:45:30;99228.69;;;7.48;100.00
10658;BME280;5377;43.276;26.930;2023-03-03T08:47:57;99229.31;;;7.73;100.00
10658;BME280;5377;43.276;26.930;2023-03-03T08:50:27;99223.38;;;7.63;100.00
10658;BME280;5377;43.276;26.930;2023-03-03T08:52:54;99231.69;;;7.68;100.00
10658;BME280;5377;43.276;26.930;2023-03-03T08:55:21;99221.44;;;7.42;100.00
10658;BME280;5377;43.276;26.930;2023-03-03T08:57:48;99221.97;;;7.37;100.00
10658;BME280;5377;43.276;26.930;2023-03-03T09:00:16;99217.66;;;7.36;100.00
10658;BME280;5377;43.276;26.930;2023-03-03T09:02:44;99218.50;;;7.51;100.00
10658;BME280;5377;43.276;26.930;2023-03-03T09:05:11;99220.19;;;7.67;100.00
10658;BME280;5377;43.276;26.930;2023-03-03T09:07:40;99218.91;;;7.78;100.00
10658;BME280;5377;43.276;26.930;2023-03-03T09:10:08;99216.16;;;7.71;100.00
10658;BME280;5377;43.276;26.930;2023-03-03T09:12:37;99217.34;;;7.83;100.00
10658;BME280;5377;43.276;26.930;2023-03-03T09:15:17;99142.41;;;7.34;100.00
10658;BME280;5377;43.276;26.930;2023-03-03T09:17:45;99212.56;;;7.79;100.00
10658;BME280;5377;43.276;26.930;2023-03-03T09:20:27;99212.47;;;7.72;100.00
10658;BME280;5377;43.276;26.930;2023-03-03T09:22:57;99202.69;;;7.50;100.00
10658;BME280;5377;43.276;26.930;2023-03-03T09:25:30;99210.78;;;7.42;100.00
10658;BME280;5377;43.276;26.930;2023-03-03T09:27:59;99206.72;;;7.31;100.00
10658;BME280;5377;43.276;26.930;2023-03-03T09:30:34;99203.88;;;7.33;100.00
10658;BME280;5377;43.276;26.930;2023-03-03T09:33:18;99199.84;;;7.51;100.00
10658;BME280;5377;43.276;26.930;2023-03-03T09:35:49;99201.94;;;7.41;100.00
10658;BME280;5377;43.276;26.930;2023-03-03T09:38:25;99196.34;;;7.36;100.00
10658;BME280;5377;43.276;26.930;2023-03-03T09:44:12;99189.13;;;7.22;100.00
10658;BME280;5377;43.276;26.930;2023-03-03T09:46:53;99191.19;;;7.35;100.00
10658;BME280;5377;43.276;26.930;2023-03-03T09:49:30;99191.66;;;7.53;100.00
10658;BME280;5377;43.276;26.930;2023-03-03T09:52:09;99192.06;;;7.27;100.00
10658;BME280;5377;43.276;26.930;2023-03-03T09:54:53;99178.94;;;7.26;100.00
10658;BME280;5377;43.276;26.930;2023-03-03T09:57:29;99141.63;;;7.11;100.00
10658;BME280;5377;43.276;26.930;2023-03-03T10:00:19;99190.72;;;7.31;100.00
10658;BME280;5377;43.276;26.930;2023-03-03T10:03:02;99188.06;;;7.46;100.00
10658;BME280;5377;43.276;26.930;2023-03-03T10:05:42;99167.56;;;7.32;100.00
10658;BME280;5377;43.276;26.930;2023-03-03T10:08:24;99182.41;;;7.64;100.00
10658;BME280;5377;43.276;26.930;2023-03-03T10:11:01;99194.19;;;7.84;100.00
10658;BME280;5377;43.276;26.930;2023-03-03T10:13:43;99178.56;;;7.81;100.00
10658;BME280;5377;43.276;26.930;2023-03-03T10:16:25;99174.59;;;7.92;100.00
10658;BME280;5377;43.276;26.930;2023-03-03T10:19:00;99160.22;;;8.22;100.00
10658;BME280;5377;43.276;26.930;2023-03-03T10:21:30;99151.47;;;8.64;100.00
10658;BME280;5377;43.276;26.930;2023-03-03T10:24:11;99151.34;;;9.15;100.00
10658;BME280;5377;43.276;26.930;2023-03-03T10:27:03;99143.47;;;9.63;100.00
10658;BME280;5377;43.276;26.930;2023-03-03T10:29:35;99131.81;;;10.12;100.00
10658;BME280;5377;43.276;26.930;2023-03-03T10:32:34;99123.31;;;10.01;94.86
10658;BME280;5377;43.276;26.930;2023-03-03T10:35:22;99113.00;;;9.98;92.63
10658;BME280;5377;43.276;26.930;2023-03-03T10:37:57;99103.06;;;10.27;90.16
10658;BME280;5377;43.276;26.930;2023-03-03T10:40:32;99097.59;;;10.68;89.63
10658;BME280;5377;43.276;26.930;2023-03-03T10:43:15;99088.75;;;11.01;86.62
10658;BME280;5377;43.276;26.930;2023-03-03T10:46:25;99086.25;;;11.39;77.59
10658;BME280;5377;43.276;26.930;2023-03-03T10:49:02;99062.09;;;13.04;70.46
10658;BME280;5377;43.276;26.930;2023-03-03T10:51:38;99062.16;;;13.66;65.92
10658;BME280;5377;43.276;26.930;2023-03-03T10:54:25;99063.31;;;13.33;62.75
10658;BME280;5377;43.276;26.930;2023-03-03T10:56:59;99052.28;;;13.60;59.80
10658;BME280;5377;43.276;26.930;2023-03-03T10:59:46;99047.50;;;14.58;56.14
10658;BME280;5377;43.276;26.930;2023-03-03T11:02:22;99041.44;;;14.15;56.27
10658;BME280;5377;43.276;26.930;2023-03-03T11:05:05;99047.19;;;13.70;56.21
10658;BME280;5377;43.276;26.930;2023-03-03T11:07:39;99045.88;;;14.09;54.73
10658;BME280;5377;43.276;26.930;2023-03-03T11:10:20;99036.09;;;15.10;50.77
10658;BME280;5377;43.276;26.930;2023-03-03T11:12:54;99028.22;;;16.52;48.00
10658;BME280;5377;43.276;26.930;2023-03-03T11:15:32;99017.59;;;17.29;46.58
10658;BME280;5377;43.276;26.930;2023-03-03T11:18:13;99015.47;;;18.14;46.19
10658;BME280;5377;43.276;26.930;2023-03-03T11:20:45;99012.34;;;18.81;42.32
10658;BME280;5377;43.276;26.930;2023-03-03T11:23:35;99004.84;;;19.40;40.68
10658;BME280;5377;43.276;26.930;2023-03-03T11:26:08;98998.00;;;18.58;41.34
10658;BME280;5377;43.276;26.930;2023-03-03T11:28:53;98991.69;;;19.64;41.16
10658;BME280;5377;43.276;26.930;2023-03-03T11:31:29;98984.91;;;19.14;38.89
10658;BME280;5377;43.276;26.930;2023-03-03T11:34:09;98988.47;;;19.77;36.56
10658;BME280;5377;43.276;26.930;2023-03-03T11:36:42;98978.09;;;20.42;34.54
10658;BME280;5377;43.276;26.930;2023-03-03T11:39:11;98976.47;;;20.66;33.51
10658;BME280;5377;43.276;26.930;2023-03-03T11:41:41;98971.25;;;20.34;34.13
10658;BME280;5377;43.276;26.930;2023-03-03T11:44:18;98959.31;;;20.66;34.63
10658;BME280;5377;43.276;26.930;2023-03-03T11:46:52;98980.47;;;20.23;34.59
10658;BME280;5377;43.276;26.930;2023-03-03T11:49:24;98978.13;;;19.17;35.69
10658;BME280;5377;43.276;26.930;2023-03-03T11:52:02;98974.34;;;17.73;37.30
10658;BME280;5377;43.276;26.930;2023-03-03T11:54:33;98968.03;;;18.43;37.41
10658;BME280;5377;43.276;26.930;2023-03-03T11:57:11;98964.00;;;18.78;37.29
10658;BME280;5377;43.276;26.930;2023-03-03T11:59:47;98948.75;;;18.13;33.95
10658;BME280;5377;43.276;26.930;2023-03-03T12:05:11;98921.66;;;17.20;37.48
10658;BME280;5377;43.276;26.930;2023-03-03T12:07:44;98963.72;;;16.27;38.03
10658;BME280;5377;43.276;26.930;2023-03-03T12:10:21;98964.97;;;15.63;39.45
10658;BME280;5377;43.276;26.930;2023-03-03T12:12:56;98966.59;;;15.64;40.35
10658;BME280;5377;43.276;26.930;2023-03-03T12:15:34;98934.97;;;14.54;42.63
10658;BME280;5377;43.276;26.930;2023-03-03T12:18:20;98971.34;;;14.86;43.24
10658;BME280;5377;43.276;26.930;2023-03-03T12:21:02;98976.25;;;14.66;42.96
10658;BME280;5377;43.276;26.930;2023-03-03T12:23:49;98971.47;;;14.26;43.60
10658;BME280;5377;43.276;26.930;2023-03-03T12:26:24;98963.28;;;14.33;46.23
10658;BME280;5377;43.276;26.930;2023-03-03T12:29:04;98955.47;;;14.01;49.49
10658;BME280;5377;43.276;26.930;2023-03-03T12:31:42;98972.22;;;14.45;50.24
10658;BME280;5377;43.276;26.930;2023-03-03T12:34:18;98960.88;;;14.13;50.07
10658;BME280;5377;43.276;26.930;2023-03-03T12:37:12;98967.44;;;14.17;51.09
10658;BME280;5377;43.276;26.930;2023-03-03T12:39:46;98962.81;;;14.24;51.29
10658;BME280;5377;43.276;26.930;2023-03-03T12:42:23;98968.06;;;14.84;49.22
10658;BME280;5377;43.276;26.930;2023-03-03T12:45:00;98961.03;;;15.07;49.37
10658;BME280;5377;43.276;26.930;2023-03-03T12:47:36;98970.50;;;15.21;48.90
10658;BME280;5377;43.276;26.930;2023-03-03T12:50:21;98963.56;;;15.37;48.09
10658;BME280;5377;43.276;26.930;2023-03-03T12:52:55;98964.41;;;15.14;48.42
10658;BME280;5377;43.276;26.930;2023-03-03T12:55:36;98961.03;;;14.60;46.97
10658;BME280;5377;43.276;26.930;2023-03-03T12:58:11;98969.94;;;13.89;48.00
10658;BME280;5377;43.276;26.930;2023-03-03T13:00:48;98980.69;;;13.16;49.88
10658;BME280;5377;43.276;26.930;2023-03-03T13:03:28;98961.34;;;13.07;49.80
10658;BME280;5377;43.276;26.930;2023-03-03T13:06:05;98957.66;;;13.26;51.50
10658;BME280;5377;43.276;26.930;2023-03-03T13:08:54;98944.41;;;12.63;52.38
10658;BME280;5377;43.276;26.930;2023-03-03T13:11:34;98970.81;;;12.91;52.36
10658;BME280;5377;43.276;26.930;2023-03-03T13:14:11;98966.06;;;12.12;55.37
10658;BME280;5377;43.276;26.930;2023-03-03T13:16:44;98970.16;;;12.21;57.13
10658;BME280;5377;43.276;26.930;2023-03-03T13:19:17;98970.22;;;12.08;58.53
10658;BME280;5377;43.276;26.930;2023-03-03T13:21:53;98958.44;;;12.15;59.29
10658;BME280;5377;43.276;26.930;2023-03-03T13:24:24;98963.31;;;12.25;61.26
10658;BME280;5377;43.276;26.930;2023-03-03T13:26:57;98962.72;;;11.85;61.70
10658;BME280;5377;43.276;26.930;2023-03-03T13:29:32;98963.25;;;11.55;62.59